sensor_id;sensor_type;location;lat;lon;timestamp;pressure;altitude;pressure_sealevel;temperature;humidity
63088;BME280;49173;43.164;27.786;2023-01-04T00:00:33;101439.13;;;7.48;86.55
63088;BME280;49173;43.164;27.786;2023-01-04T00:02:58;101432.91;;;7.48;86.83
63088;BME280;49173;43.164;27.786;2023-01-04T00:05:24;101440.88;;;7.49;87.56
63088;BME280;49173;43.164;27.786;2023-01-04T00:07:50;101458.72;;;7.49;87.68
63088;BME280;49173;43.164;27.786;2023-01-04T00:10:15;101456.03;;;7.49;87.46
63088;BME280;49173;43.164;27.786;2023-01-04T00:12:41;101454.28;;;7.48;87.24
63088;BME280;49173;43.164;27.786;2023-01-04T00:15:08;101450.75;;;7.46;87.47
63088;BME280;49173;43.164;27.786;2023-01-04T00:17:33;101446.41;;;7.41;87.90
63088;BME280;49173;43.164;27.786;2023-01-04T00:19:59;101456.25;;;7.39;87.83
63088;BME280;49173;43.164;27.786;2023-01-04T00:22:25;101454.53;;;7.37;88.11
63088;BME280;49173;43.164;27.786;2023-01-04T00:24:51;101458.94;;;7.38;88.19
63088;BME280;49173;43.164;27.786;2023-01-04T00:27:16;101464.34;;;7.36;88.42
63088;BME280;49173;43.164;27.786;2023-01-04T00:29:42;101467.06;;;7.35;87.84
63088;BME280;49173;43.164;27.786;2023-01-04T00:32:08;101464.44;;;7.33;87.81
63088;BME280;49173;43.164;27.786;2023-01-04T00:34:33;101464.47;;;7.30;87.49
63088;BME280;49173;43.164;27.786;2023-01-04T00:36:59;101463.69;;;7.27;87.59
63088;BME280;49173;43.164;27.786;2023-01-04T00:39:25;101463.69;;;7.27;87.86
63088;BME280;49173;43.164;27.786;2023-01-04T00:41:53;101469.91;;;7.26;87.87
63088;BME280;49173;43.164;27.786;2023-01-04T00:44:30;101473.50;;;7.25;88.28
63088;BME280;49173;43.164;27.786;2023-01-04T00:46:58;101476.22;;;7.23;88.44
63088;BME280;49173;43.164;27.786;2023-01-04T00:49:28;101478.94;;;7.22;87.71
63088;BME280;49173;43.164;27.786;2023-01-04T00:51:54;101481.66;;;7.20;87.76
63088;BME280;49173;43.164;27.786;2023-01-04T00:54:20;101476.34;;;7.17;88.02
63088;BME280;49173;43.164;27.786;2023-01-04T00:56:47;101478.19;;;7.15;87.77
63088;BME280;49173;43.164;27.786;2023-01-04T00:59:14;101487.13;;;7.14;88.12
63088;BME280;49173;43.164;27.786;2023-01-04T01:01:41;101483.63;;;7.12;88.16
63088;BME280;49173;43.164;27.786;2023-01-04T01:04:10;101489.84;;;7.11;88.36
63088;BME280;49173;43.164;27.786;2023-01-04T01:06:36;101482.72;;;7.11;88.58
63088;BME280;49173;43.164;27.786;2023-01-04T01:09:02;101486.28;;;7.10;88.78
63088;BME280;49173;43.164;27.786;2023-01-04T01:11:29;101487.22;;;7.09;88.73
63088;BME280;49173;43.164;27.786;2023-01-04T01:13:55;101473.03;;;7.07;88.47
63088;BME280;49173;43.164;27.786;2023-01-04T01:16:22;101467.75;;;7.06;88.11
63088;BME280;49173;43.164;27.786;2023-01-04T01:18:50;101475.75;;;7.04;88.57
63088;BME280;49173;43.164;27.786;2023-01-04T01:21:21;101480.22;;;7.04;88.37
63088;BME280;49173;43.164;27.786;2023-01-04T01:23:47;101476.72;;;7.02;87.67
63088;BME280;49173;43.164;27.786;2023-01-04T01:26:18;101479.44;;;7.00;87.44
63088;BME280;49173;43.164;27.786;2023-01-04T01:28:45;101471.47;;;6.99;87.70
63088;BME280;49173;43.164;27.786;2023-01-04T01:31:24;101478.59;;;6.98;88.21
63088;BME280;49173;43.164;27.786;2023-01-04T01:33:51;101472.38;;;6.98;88.51
63088;BME280;49173;43.164;27.786;2023-01-04T01:36:19;101476.75;;;7.00;89.03
63088;BME280;49173;43.164;27.786;2023-01-04T01:38:46;101481.13;;;7.03;89.80
63088;BME280;49173;43.164;27.786;2023-01-04T01:41:21;101488.25;;;7.02;90.10
63088;BME280;49173;43.164;27.786;2023-01-04T01:43:50;101482.00;;;7.03;90.07
63088;BME280;49173;43.164;27.786;2023-01-04T01:46:43;101481.19;;;7.01;89.83
63088;BME280;49173;43.164;27.786;2023-01-04T01:49:28;101474.97;;;7.01;89.39
63088;BME280;49173;43.164;27.786;2023-01-04T01:51:59;101481.22;;;7.00;89.07
63088;BME280;49173;43.164;27.786;2023-01-04T01:54:32;101484.81;;;6.97;89.26
63088;BME280;49173;43.164;27.786;2023-01-04T01:57:01;101481.31;;;6.95;89.83
63088;BME280;49173;43.164;27.786;2023-01-04T01:59:29;101479.47;;;6.97;90.15
63088;BME280;49173;43.164;27.786;2023-01-04T02:01:57;101483.94;;;6.97;90.29
63088;BME280;49173;43.164;27.786;2023-01-04T02:04:22;101488.44;;;6.95;90.68
63088;BME280;49173;43.164;27.786;2023-01-04T02:06:52;101485.78;;;6.95;90.51
63088;BME280;49173;43.164;27.786;2023-01-04T02:09:20;101482.28;;;6.93;90.60
63088;BME280;49173;43.164;27.786;2023-01-04T02:11:47;101489.34;;;6.94;90.99
63088;BME280;49173;43.164;27.786;2023-01-04T02:14:13;101486.72;;;6.92;91.08
63088;BME280;49173;43.164;27.786;2023-01-04T02:16:58;101491.19;;;6.92;91.23
63088;BME280;49173;43.164;27.786;2023-01-04T02:31:20;101489.56;;;6.84;91.56
63088;BME280;49173;43.164;27.786;2023-01-04T02:39:45;101485.28;;;6.77;91.41
63088;BME280;49173;43.164;27.786;2023-01-04T02:45:22;101484.41;;;6.75;91.32
63088;BME280;49173;43.164;27.786;2023-01-04T02:47:51;101490.69;;;6.73;90.90
63088;BME280;49173;43.164;27.786;2023-01-04T02:50:56;101489.06;;;6.66;90.58
63088;BME280;49173;43.164;27.786;2023-01-04T02:53:37;101486.47;;;6.61;90.77
63088;BME280;49173;43.164;27.786;2023-01-04T02:56:18;101493.59;;;6.60;90.74
63088;BME280;49173;43.164;27.786;2023-01-04T03:01:47;101498.09;;;6.58;90.90
63088;BME280;49173;43.164;27.786;2023-01-04T03:07:38;101494.59;;;6.56;90.15
63088;BME280;49173;43.164;27.786;2023-01-04T03:10:36;101503.56;;;6.52;90.45
63088;BME280;49173;43.164;27.786;2023-01-04T03:13:25;101497.34;;;6.52;90.91
63088;BME280;49173;43.164;27.786;2023-01-04T03:16:05;101494.69;;;6.52;90.73
63088;BME280;49173;43.164;27.786;2023-01-04T03:18:36;101494.81;;;6.46;90.64
63088;BME280;49173;43.164;27.786;2023-01-04T03:21:06;101493.97;;;6.44;91.02
63088;BME280;49173;43.164;27.786;2023-01-04T03:23:35;101493.91;;;6.45;91.10
63088;BME280;49173;43.164;27.786;2023-01-04T03:26:27;101493.97;;;6.44;91.54
63088;BME280;49173;43.164;27.786;2023-01-04T03:29:22;101482.41;;;6.43;91.68
63088;BME280;49173;43.164;27.786;2023-01-04T03:32:15;101489.53;;;6.41;91.78
63088;BME280;49173;43.164;27.786;2023-01-04T03:35:01;101495.78;;;6.40;91.41
63088;BME280;49173;43.164;27.786;2023-01-04T03:37:57;101502.88;;;6.41;91.19
63088;BME280;49173;43.164;27.786;2023-01-04T03:40:49;101512.66;;;6.41;91.20
63088;BME280;49173;43.164;27.786;2023-01-04T03:43:53;101520.75;;;6.38;91.26
63088;BME280;49173;43.164;27.786;2023-01-04T03:46:52;101526.16;;;6.35;91.20
63088;BME280;49173;43.164;27.786;2023-01-04T03:49:46;101525.31;;;6.31;91.13
63088;BME280;49173;43.164;27.786;2023-01-04T03:52:14;101529.75;;;6.30;91.07
63088;BME280;49173;43.164;27.786;2023-01-04T03:54:43;101526.22;;;6.30;91.15
63088;BME280;49173;43.164;27.786;2023-01-04T03:57:11;101536.84;;;6.31;91.53
63088;BME280;49173;43.164;27.786;2023-01-04T03:59:42;101528.88;;;6.30;91.51
63088;BME280;49173;43.164;27.786;2023-01-04T04:02:11;101528.00;;;6.29;92.35
63088;BME280;49173;43.164;27.786;2023-01-04T04:04:41;101536.03;;;6.26;91.93
63088;BME280;49173;43.164;27.786;2023-01-04T04:07:26;101542.28;;;6.25;92.03
63088;BME280;49173;43.164;27.786;2023-01-04T04:10:10;101527.28;;;6.21;91.82
63088;BME280;49173;43.164;27.786;2023-01-04T04:12:36;101535.28;;;6.21;91.83
63088;BME280;49173;43.164;27.786;2023-01-04T04:15:03;101546.78;;;6.23;91.75
63088;BME280;49173;43.164;27.786;2023-01-04T04:17:28;101544.03;;;6.26;92.83
63088;BME280;49173;43.164;27.786;2023-01-04T04:19:54;101549.38;;;6.26;93.01
63088;BME280;49173;43.164;27.786;2023-01-04T04:22:20;101548.50;;;6.26;92.55
63088;BME280;49173;43.164;27.786;2023-01-04T04:24:46;101552.91;;;6.27;92.73
63088;BME280;49173;43.164;27.786;2023-01-04T04:27:11;101553.00;;;6.24;92.50
63088;BME280;49173;43.164;27.786;2023-01-04T04:29:37;101549.50;;;6.20;91.73
63088;BME280;49173;43.164;27.786;2023-01-04T04:32:03;101557.50;;;6.19;91.08
63088;BME280;49173;43.164;27.786;2023-01-04T04:34:28;101560.19;;;6.19;90.98
63088;BME280;49173;43.164;27.786;2023-01-04T04:36:54;101558.47;;;6.16;91.61
63088;BME280;49173;43.164;27.786;2023-01-04T04:39:20;101559.38;;;6.15;91.87
63088;BME280;49173;43.164;27.786;2023-01-04T04:41:46;101553.13;;;6.16;92.07
63088;BME280;49173;43.164;27.786;2023-01-04T04:44:18;101552.28;;;6.13;92.03
63088;BME280;49173;43.164;27.786;2023-01-04T04:46:46;101557.63;;;6.13;92.01
63088;BME280;49173;43.164;27.786;2023-01-04T04:49:13;101570.09;;;6.11;91.84
63088;BME280;49173;43.164;27.786;2023-01-04T04:51:40;101567.47;;;6.09;91.90
63088;BME280;49173;43.164;27.786;2023-01-04T04:54:07;101569.25;;;6.09;91.71
63088;BME280;49173;43.164;27.786;2023-01-04T04:56:34;101579.94;;;6.07;91.73
63088;BME280;49173;43.164;27.786;2023-01-04T04:59:02;101579.94;;;6.07;91.65
63088;BME280;49173;43.164;27.786;2023-01-04T05:01:28;101572.84;;;6.06;91.98
63088;BME280;49173;43.164;27.786;2023-01-04T05:03:55;101580.88;;;6.04;91.65
63088;BME280;49173;43.164;27.786;2023-01-04T05:06:21;101574.75;;;5.99;91.92
63088;BME280;49173;43.164;27.786;2023-01-04T05:08:47;101576.50;;;5.99;92.19
63088;BME280;49173;43.164;27.786;2023-01-04T05:11:13;101577.34;;;6.02;92.96
63088;BME280;49173;43.164;27.786;2023-01-04T05:13:39;101575.59;;;6.01;93.42
63088;BME280;49173;43.164;27.786;2023-01-04T05:16:06;101577.34;;;6.02;93.22
63088;BME280;49173;43.164;27.786;2023-01-04T05:18:32;101571.16;;;6.02;93.18
63088;BME280;49173;43.164;27.786;2023-01-04T05:20:58;101570.31;;;6.00;92.74
63088;BME280;49173;43.164;27.786;2023-01-04T05:23:24;101569.41;;;5.98;92.42
63088;BME280;49173;43.164;27.786;2023-01-04T05:25:52;101571.25;;;5.96;92.72
63088;BME280;49173;43.164;27.786;2023-01-04T05:28:19;101575.69;;;5.95;92.62
63088;BME280;49173;43.164;27.786;2023-01-04T05:30:44;101576.63;;;5.93;92.47
63088;BME280;49173;43.164;27.786;2023-01-04T05:33:28;101573.97;;;5.93;92.36
63088;BME280;49173;43.164;27.786;2023-01-04T05:35:56;101571.31;;;5.93;92.66
63088;BME280;49173;43.164;27.786;2023-01-04T05:38:22;101578.38;;;5.94;92.05
63088;BME280;49173;43.164;27.786;2023-01-04T05:40:50;101571.28;;;5.94;91.74
63088;BME280;49173;43.164;27.786;2023-01-04T05:43:17;101568.59;;;5.94;91.58
63088;BME280;49173;43.164;27.786;2023-01-04T05:45:51;101572.13;;;5.96;91.44
63088;BME280;49173;43.164;27.786;2023-01-04T05:48:17;101572.13;;;5.96;92.07
63088;BME280;49173;43.164;27.786;2023-01-04T05:50:43;101585.44;;;5.96;92.08
63088;BME280;49173;43.164;27.786;2023-01-04T05:53:12;101581.03;;;5.95;92.41
63088;BME280;49173;43.164;27.786;2023-01-04T05:55:42;101584.56;;;5.96;93.12
63088;BME280;49173;43.164;27.786;2023-01-04T05:58:08;101593.47;;;5.95;93.55
63088;BME280;49173;43.164;27.786;2023-01-04T06:00:34;101601.47;;;5.95;93.63
63088;BME280;49173;43.164;27.786;2023-01-04T06:03:00;101596.97;;;5.97;93.91
63088;BME280;49173;43.164;27.786;2023-01-04T06:05:26;101598.72;;;5.98;93.60
63088;BME280;49173;43.164;27.786;2023-01-04T06:07:51;101596.06;;;5.98;93.39
63088;BME280;49173;43.164;27.786;2023-01-04T06:10:18;101601.38;;;6.01;93.58
63088;BME280;49173;43.164;27.786;2023-01-04T06:12:45;101601.28;;;6.05;93.48
63088;BME280;49173;43.164;27.786;2023-01-04T06:15:11;101599.47;;;6.06;93.27
63088;BME280;49173;43.164;27.786;2023-01-04T06:17:38;101610.16;;;6.06;93.90
63088;BME280;49173;43.164;27.786;2023-01-04T06:20:05;101609.19;;;6.10;94.00
63088;BME280;49173;43.164;27.786;2023-01-04T06:22:34;101608.28;;;6.11;94.40
63088;BME280;49173;43.164;27.786;2023-01-04T06:24:59;101610.00;;;6.15;94.31
63088;BME280;49173;43.164;27.786;2023-01-04T06:27:25;101613.50;;;6.19;94.02
63088;BME280;49173;43.164;27.786;2023-01-04T06:29:51;101624.16;;;6.20;93.89
63088;BME280;49173;43.164;27.786;2023-01-04T06:32:17;101632.09;;;6.23;94.40
63088;BME280;49173;43.164;27.786;2023-01-04T06:34:45;101631.13;;;6.27;94.07
63088;BME280;49173;43.164;27.786;2023-01-04T06:37:11;101628.44;;;6.29;93.76
63088;BME280;49173;43.164;27.786;2023-01-04T06:39:37;101631.91;;;6.32;93.86
63088;BME280;49173;43.164;27.786;2023-01-04T06:42:03;101632.78;;;6.35;93.85
63088;BME280;49173;43.164;27.786;2023-01-04T06:44:30;101633.59;;;6.38;93.92
63088;BME280;49173;43.164;27.786;2023-01-04T06:46:56;101636.25;;;6.40;93.59
63088;BME280;49173;43.164;27.786;2023-01-04T06:49:21;101650.41;;;6.43;93.79
63088;BME280;49173;43.164;27.786;2023-01-04T06:51:47;101650.38;;;6.45;93.91
63088;BME280;49173;43.164;27.786;2023-01-04T06:54:13;101656.53;;;6.48;93.69
63088;BME280;49173;43.164;27.786;2023-01-04T06:56:39;101660.06;;;6.50;93.42
63088;BME280;49173;43.164;27.786;2023-01-04T06:59:05;101662.66;;;6.53;93.51
63088;BME280;49173;43.164;27.786;2023-01-04T07:01:31;101663.53;;;6.55;93.75
63088;BME280;49173;43.164;27.786;2023-01-04T07:03:57;101669.66;;;6.60;94.25
63088;BME280;49173;43.164;27.786;2023-01-04T07:06:23;101661.59;;;6.65;94.48
63088;BME280;49173;43.164;27.786;2023-01-04T07:08:48;101662.38;;;6.70;94.12
63088;BME280;49173;43.164;27.786;2023-01-04T07:11:14;101669.41;;;6.74;94.32
63088;BME280;49173;43.164;27.786;2023-01-04T07:13:40;101672.81;;;6.82;94.71
63088;BME280;49173;43.164;27.786;2023-01-04T07:16:06;101667.31;;;6.92;95.60
63088;BME280;49173;43.164;27.786;2023-01-04T07:18:31;101675.97;;;7.03;96.20
63088;BME280;49173;43.164;27.786;2023-01-04T07:20:57;101661.56;;;7.13;96.66
63088;BME280;49173;43.164;27.786;2023-01-04T07:23:23;101665.78;;;7.23;97.16
63088;BME280;49173;43.164;27.786;2023-01-04T07:25:49;101678.03;;;7.35;97.50
63088;BME280;49173;43.164;27.786;2023-01-04T07:28:15;101684.97;;;7.43;97.40
63088;BME280;49173;43.164;27.786;2023-01-04T07:31:06;101675.88;;;7.52;97.49
63088;BME280;49173;43.164;27.786;2023-01-04T07:33:32;101673.97;;;7.57;97.38
63088;BME280;49173;43.164;27.786;2023-01-04T07:36:02;101688.94;;;7.66;97.49
63088;BME280;49173;43.164;27.786;2023-01-04T07:38:28;101688.72;;;7.77;97.58
63088;BME280;49173;43.164;27.786;2023-01-04T07:40:54;101694.72;;;7.86;97.52
63088;BME280;49173;43.164;27.786;2023-01-04T07:43:19;101695.41;;;7.94;98.12
63088;BME280;49173;43.164;27.786;2023-01-04T07:45:45;101697.91;;;8.04;98.42
63088;BME280;49173;43.164;27.786;2023-01-04T07:48:13;101687.91;;;8.12;98.47
63088;BME280;49173;43.164;27.786;2023-01-04T07:50:38;101691.28;;;8.20;98.40
63088;BME280;49173;43.164;27.786;2023-01-04T07:53:04;101682.25;;;8.24;98.00
63088;BME280;49173;43.164;27.786;2023-01-04T07:55:30;101686.59;;;8.28;97.54
63088;BME280;49173;43.164;27.786;2023-01-04T07:57:55;101691.91;;;8.30;97.27
63088;BME280;49173;43.164;27.786;2023-01-04T08:00:21;101693.66;;;8.32;96.86
63088;BME280;49173;43.164;27.786;2023-01-04T08:02:48;101694.50;;;8.34;96.33
63088;BME280;49173;43.164;27.786;2023-01-04T08:05:14;101686.44;;;8.36;96.14
63088;BME280;49173;43.164;27.786;2023-01-04T08:07:40;101684.66;;;8.36;95.99
63088;BME280;49173;43.164;27.786;2023-01-04T08:10:06;101689.13;;;8.36;95.71
63088;BME280;49173;43.164;27.786;2023-01-04T08:12:32;101699.78;;;8.37;95.39
63088;BME280;49173;43.164;27.786;2023-01-04T08:14:57;101696.19;;;8.40;95.31
63088;BME280;49173;43.164;27.786;2023-01-04T08:17:23;101693.38;;;8.44;95.64
63088;BME280;49173;43.164;27.786;2023-01-04T08:19:49;101685.22;;;8.49;94.99
63088;BME280;49173;43.164;27.786;2023-01-04T08:22:15;101691.38;;;8.52;94.97
63088;BME280;49173;43.164;27.786;2023-01-04T08:24:41;101685.88;;;8.59;95.32
63088;BME280;49173;43.164;27.786;2023-01-04T08:27:07;101691.00;;;8.68;95.29
63088;BME280;49173;43.164;27.786;2023-01-04T08:29:33;101691.75;;;8.73;94.88
63088;BME280;49173;43.164;27.786;2023-01-04T08:31:58;101694.22;;;8.80;94.75
63088;BME280;49173;43.164;27.786;2023-01-04T08:34:24;101698.47;;;8.88;94.80
63088;BME280;49173;43.164;27.786;2023-01-04T08:36:51;101702.75;;;8.95;94.71
63088;BME280;49173;43.164;27.786;2023-01-04T08:39:18;101696.31;;;9.03;94.14
63088;BME280;49173;43.164;27.786;2023-01-04T08:41:45;101701.50;;;9.10;93.22
63088;BME280;49173;43.164;27.786;2023-01-04T08:44:20;101690.56;;;9.16;92.17
63088;BME280;49173;43.164;27.786;2023-01-04T08:46:46;101691.38;;;9.19;91.27
63088;BME280;49173;43.164;27.786;2023-01-04T08:49:12;101702.00;;;9.22;91.11
63088;BME280;49173;43.164;27.786;2023-01-04T08:51:39;101708.16;;;9.26;90.69
63088;BME280;49173;43.164;27.786;2023-01-04T08:54:05;101705.56;;;9.23;89.68
63088;BME280;49173;43.164;27.786;2023-01-04T08:56:30;101710.13;;;9.19;88.57
63088;BME280;49173;43.164;27.786;2023-01-04T08:58:56;101705.91;;;9.11;88.66
63088;BME280;49173;43.164;27.786;2023-01-04T09:01:22;101706.88;;;9.08;89.58
63088;BME280;49173;43.164;27.786;2023-01-04T09:03:48;101711.50;;;9.03;90.16
63088;BME280;49173;43.164;27.786;2023-01-04T09:06:14;101709.03;;;8.95;89.80
63088;BME280;49173;43.164;27.786;2023-01-04T09:08:41;101703.47;;;9.01;90.24
63088;BME280;49173;43.164;27.786;2023-01-04T09:11:13;101709.75;;;9.00;89.58
63088;BME280;49173;43.164;27.786;2023-01-04T09:13:40;101697.13;;;9.05;89.50
63088;BME280;49173;43.164;27.786;2023-01-04T09:16:09;101700.56;;;9.11;88.73
63088;BME280;49173;43.164;27.786;2023-01-04T09:18:35;101704.13;;;9.11;88.21
63088;BME280;49173;43.164;27.786;2023-01-04T09:21:08;101703.16;;;9.14;87.60
63088;BME280;49173;43.164;27.786;2023-01-04T09:23:36;101696.91;;;9.13;87.75
63088;BME280;49173;43.164;27.786;2023-01-04T09:26:07;101699.63;;;9.12;87.84
63088;BME280;49173;43.164;27.786;2023-01-04T09:28:33;101687.03;;;9.15;88.17
63088;BME280;49173;43.164;27.786;2023-01-04T09:31:07;101686.84;;;9.21;87.78
63088;BME280;49173;43.164;27.786;2023-01-04T09:33:33;101685.06;;;9.22;86.76
63088;BME280;49173;43.164;27.786;2023-01-04T09:36:01;101687.56;;;9.28;86.24
63088;BME280;49173;43.164;27.786;2023-01-04T09:38:28;101690.25;;;9.28;85.87
63088;BME280;49173;43.164;27.786;2023-01-04T09:46:51;101676.16;;;9.21;84.28
63088;BME280;49173;43.164;27.786;2023-01-04T09:49:38;101687.72;;;9.22;84.44
63088;BME280;49173;43.164;27.786;2023-01-04T09:52:32;101686.75;;;9.26;84.01
63088;BME280;49173;43.164;27.786;2023-01-04T09:55:02;101682.38;;;9.22;83.56
63088;BME280;49173;43.164;27.786;2023-01-04T09:57:37;101689.50;;;9.23;83.91
63088;BME280;49173;43.164;27.786;2023-01-04T10:00:16;101688.66;;;9.21;83.80
63088;BME280;49173;43.164;27.786;2023-01-04T10:02:48;101689.50;;;9.23;83.53
63088;BME280;49173;43.164;27.786;2023-01-04T10:05:19;101693.03;;;9.25;82.58
63088;BME280;49173;43.164;27.786;2023-01-04T10:07:46;101691.38;;;9.19;82.42
63088;BME280;49173;43.164;27.786;2023-01-04T10:10:13;101691.50;;;9.16;82.07
63088;BME280;49173;43.164;27.786;2023-01-04T10:15:59;101684.34;;;9.15;81.53
63088;BME280;49173;43.164;27.786;2023-01-04T10:21:10;101682.53;;;9.17;81.23
63088;BME280;49173;43.164;27.786;2023-01-04T10:24:09;101676.09;;;9.23;81.53
63088;BME280;49173;43.164;27.786;2023-01-04T10:26:47;101672.69;;;9.18;81.30
63088;BME280;49173;43.164;27.786;2023-01-04T10:33:09;101674.16;;;9.28;80.24
63088;BME280;49173;43.164;27.786;2023-01-04T10:35:25;101669.91;;;9.21;80.57
63088;BME280;49173;43.164;27.786;2023-01-04T10:37:56;101675.19;;;9.24;81.03
63088;BME280;49173;43.164;27.786;2023-01-04T10:40:23;101671.44;;;9.29;80.92
63088;BME280;49173;43.164;27.786;2023-01-04T10:45:59;101680.34;;;9.31;80.70
63088;BME280;49173;43.164;27.786;2023-01-04T10:48:49;101679.34;;;9.34;80.01
63088;BME280;49173;43.164;27.786;2023-01-04T10:51:26;101684.88;;;9.28;79.99
63088;BME280;49173;43.164;27.786;2023-01-04T10:54:00;101686.78;;;9.24;80.16
63088;BME280;49173;43.164;27.786;2023-01-04T10:56:34;101686.84;;;9.21;80.14
63088;BME280;49173;43.164;27.786;2023-01-04T10:59:17;101684.00;;;9.27;80.62
63088;BME280;49173;43.164;27.786;2023-01-04T11:02:12;101679.53;;;9.28;80.09
63088;BME280;49173;43.164;27.786;2023-01-04T11:05:06;101675.31;;;9.19;80.21
63088;BME280;49173;43.164;27.786;2023-01-04T11:07:38;101674.34;;;9.22;80.37
63088;BME280;49173;43.164;27.786;2023-01-04T11:10:11;101665.25;;;9.27;80.19
63088;BME280;49173;43.164;27.786;2023-01-04T11:12:38;101666.09;;;9.29;79.41
63088;BME280;49173;43.164;27.786;2023-01-04T11:15:04;101675.91;;;9.30;78.43
63088;BME280;49173;43.164;27.786;2023-01-04T11:17:31;101667.88;;;9.30;78.17
63088;BME280;49173;43.164;27.786;2023-01-04T11:19:57;101672.31;;;9.30;77.98
63088;BME280;49173;43.164;27.786;2023-01-04T11:23:17;101673.13;;;9.33;77.44
63088;BME280;49173;43.164;27.786;2023-01-04T11:25:49;101670.56;;;9.29;77.50
63088;BME280;49173;43.164;27.786;2023-01-04T11:33:58;101664.69;;;9.47;77.11
63088;BME280;49173;43.164;27.786;2023-01-04T11:38:57;101679.09;;;9.43;76.67
63088;BME280;49173;43.164;27.786;2023-01-04T11:41:23;101668.28;;;9.46;76.27
63088;BME280;49173;43.164;27.786;2023-01-04T11:44:01;101664.91;;;9.40;76.33
63088;BME280;49173;43.164;27.786;2023-01-04T11:46:28;101666.53;;;9.45;76.47
63088;BME280;49173;43.164;27.786;2023-01-04T11:48:54;101666.31;;;9.53;75.54
63088;BME280;49173;43.164;27.786;2023-01-04T11:57:00;101672.44;;;9.56;75.78
63088;BME280;49173;43.164;27.786;2023-01-04T11:59:26;101675.06;;;9.58;75.50
63088;BME280;49173;43.164;27.786;2023-01-04T12:02:29;101672.50;;;9.55;74.95
63088;BME280;49173;43.164;27.786;2023-01-04T12:04:55;101665.38;;;9.54;74.99
63088;BME280;49173;43.164;27.786;2023-01-04T12:09:46;101667.88;;;9.60;74.66
63088;BME280;49173;43.164;27.786;2023-01-04T12:12:12;101663.25;;;9.65;74.24
63088;BME280;49173;43.164;27.786;2023-01-04T12:14:44;101667.72;;;9.64;74.33
63088;BME280;49173;43.164;27.786;2023-01-04T12:17:34;101667.72;;;9.64;74.30
63088;BME280;49173;43.164;27.786;2023-01-04T12:20:14;101656.13;;;9.64;73.78
63088;BME280;49173;43.164;27.786;2023-01-04T12:22:40;101664.34;;;9.58;73.51
63088;BME280;49173;43.164;27.786;2023-01-04T12:27:51;101659.22;;;9.50;74.04
63088;BME280;49173;43.164;27.786;2023-01-04T12:30:35;101661.94;;;9.49;74.36
63088;BME280;49173;43.164;27.786;2023-01-04T12:36:15;101672.78;;;9.44;74.51
63088;BME280;49173;43.164;27.786;2023-01-04T12:52:47;101671.28;;;9.35;75.08
63088;BME280;49173;43.164;27.786;2023-01-04T12:55:24;101662.28;;;9.38;74.91
63088;BME280;49173;43.164;27.786;2023-01-04T12:57:50;101663.06;;;9.42;74.83
63088;BME280;49173;43.164;27.786;2023-01-04T13:00:16;101656.94;;;9.38;74.47
63088;BME280;49173;43.164;27.786;2023-01-04T13:02:47;101671.41;;;9.31;74.73
63088;BME280;49173;43.164;27.786;2023-01-04T13:05:36;101664.34;;;9.28;74.57
63088;BME280;49173;43.164;27.786;2023-01-04T13:08:09;101663.28;;;9.34;74.85
63088;BME280;49173;43.164;27.786;2023-01-04T13:10:39;101658.69;;;9.39;74.77
63088;BME280;49173;43.164;27.786;2023-01-04T13:16:29;101659.41;;;9.44;74.50
63088;BME280;49173;43.164;27.786;2023-01-04T13:19:17;101659.44;;;9.43;74.40
63088;BME280;49173;43.164;27.786;2023-01-04T13:21:45;101656.72;;;9.44;74.22
63088;BME280;49173;43.164;27.786;2023-01-04T13:24:20;101660.31;;;9.45;74.21
63088;BME280;49173;43.164;27.786;2023-01-04T13:26:46;101663.69;;;9.50;73.92
63088;BME280;49173;43.164;27.786;2023-01-04T13:29:25;101652.16;;;9.48;73.74
63088;BME280;49173;43.164;27.786;2023-01-04T13:31:57;101648.44;;;9.53;73.35
63088;BME280;49173;43.164;27.786;2023-01-04T13:34:28;101653.84;;;9.52;73.56
63088;BME280;49173;43.164;27.786;2023-01-04T13:37:05;101645.13;;;9.44;73.27
63088;BME280;49173;43.164;27.786;2023-01-04T13:39:36;101655.13;;;9.39;73.59
63088;BME280;49173;43.164;27.786;2023-01-04T13:42:03;101656.06;;;9.36;73.47
63088;BME280;49173;43.164;27.786;2023-01-04T13:47:40;101646.44;;;9.30;73.74
63088;BME280;49173;43.164;27.786;2023-01-04T13:50:33;101656.25;;;9.30;73.94
63088;BME280;49173;43.164;27.786;2023-01-04T13:53:00;101663.47;;;9.28;73.96
63088;BME280;49173;43.164;27.786;2023-01-04T13:55:30;101659.84;;;9.29;73.88
63088;BME280;49173;43.164;27.786;2023-01-04T13:58:03;101663.38;;;9.31;74.12
63088;BME280;49173;43.164;27.786;2023-01-04T14:00:32;101666.28;;;9.23;74.51
63088;BME280;49173;43.164;27.786;2023-01-04T14:03:14;101661.00;;;9.20;74.40
63088;BME280;49173;43.164;27.786;2023-01-04T14:05:47;101671.75;;;9.19;74.02
63088;BME280;49173;43.164;27.786;2023-01-04T14:08:24;101672.03;;;9.10;74.01
63088;BME280;49173;43.164;27.786;2023-01-04T14:10:52;101679.09;;;9.12;74.10
63088;BME280;49173;43.164;27.786;2023-01-04T14:13:18;101678.22;;;9.12;73.31
63088;BME280;49173;43.164;27.786;2023-01-04T14:15:45;101676.63;;;9.04;73.70
63088;BME280;49173;43.164;27.786;2023-01-04T14:18:28;101670.47;;;9.01;72.91
63088;BME280;49173;43.164;27.786;2023-01-04T14:20:54;101680.25;;;9.02;72.61
63088;BME280;49173;43.164;27.786;2023-01-04T14:23:34;101678.38;;;9.05;72.79
63088;BME280;49173;43.164;27.786;2023-01-04T14:26:03;101684.44;;;9.12;72.41
63088;BME280;49173;43.164;27.786;2023-01-04T14:28:39;101687.03;;;9.15;71.66
63088;BME280;49173;43.164;27.786;2023-01-04T14:41:35;101691.28;;;9.22;71.30
63088;BME280;49173;43.164;27.786;2023-01-04T14:44:09;101679.75;;;9.20;71.39
63088;BME280;49173;43.164;27.786;2023-01-04T14:46:36;101689.63;;;9.18;71.88